Atlantic Beach, South Carolina
Current Conditions -  °F | °C
As of 10:53 AM on Friday 31 Oct 2014 (Local Time) from KCRE Reporting Station
Clear Clear  
Wind Chill: 61°   Ceiling: Unl
Heat Index: 61°   Visibility: 10mi
Dew Point: 46°   Wind: 10mph
Humidity: 58%   Direction: 50°NE
Pressure: 29.9"   Gusts: NA
Location:  33.8371°N, 78.6471°W
Report Text: KCRE 311453Z 05009KT 10SM CLR 16/08 A2990 RMK AO1 SLP125 T01610078 58000
Loading
Personal Weather Stations






























Interactive Weather Map
Tropical Storm Tracking
New forecast layout! Learn more

10-Day Weather Forecast

Advertisements
Track Severe Weather on mobile